createdAt,value
2023-05-16T00:00:48.599Z,19.41
2023-05-16T00:03:15.103Z,19.40
2023-05-16T00:05:41.340Z,19.42
2023-05-16T00:08:07.587Z,19.41
2023-05-16T00:10:33.913Z,19.40
2023-05-16T00:13:04.171Z,19.42
2023-05-16T00:15:33.028Z,19.42
2023-05-16T00:18:00.993Z,19.38
2023-05-16T00:20:27.481Z,19.37
2023-05-16T00:22:57.574Z,19.42
2023-05-16T00:25:23.783Z,19.42
2023-05-16T00:27:50.869Z,19.38
2023-05-16T00:30:17.227Z,19.38
2023-05-16T00:32:47.490Z,19.37
2023-05-16T00:35:13.765Z,19.36
2023-05-16T00:37:41.257Z,19.37
2023-05-16T00:40:07.494Z,19.35
2023-05-16T00:42:34.163Z,19.34
2023-05-16T00:45:00.476Z,19.34
2023-05-16T00:47:29.917Z,19.35
2023-05-16T00:49:58.438Z,19.35
2023-05-16T00:52:24.636Z,19.38
2023-05-16T00:54:53.967Z,19.37
2023-05-16T00:57:22.264Z,19.36
2023-05-16T00:59:48.797Z,19.35
2023-05-16T01:02:19.261Z,19.39
2023-05-16T01:04:45.617Z,19.36
2023-05-16T01:07:13.375Z,19.35
2023-05-16T01:09:39.634Z,19.31
2023-05-16T01:12:05.929Z,19.32
2023-05-16T01:14:37.582Z,19.37
2023-05-16T01:17:03.836Z,19.34
2023-05-16T01:19:30.125Z,19.33
2023-05-16T01:21:56.375Z,19.35
2023-05-16T01:24:22.598Z,19.36
2023-05-16T01:26:48.987Z,19.36
2023-05-16T01:29:15.615Z,19.34
2023-05-16T01:31:41.874Z,19.34
2023-05-16T01:34:09.967Z,19.37
2023-05-16T01:36:37.266Z,19.35
2023-05-16T01:39:05.419Z,19.32
2023-05-16T01:41:31.903Z,19.30
2023-05-16T01:44:00.659Z,19.36
2023-05-16T01:46:27.482Z,19.35
2023-05-16T01:48:53.765Z,19.33
2023-05-16T01:51:20.003Z,19.34
2023-05-16T01:53:46.273Z,19.30
2023-05-16T01:56:12.654Z,19.34
2023-05-16T01:58:38.909Z,19.34
2023-05-16T02:01:08.057Z,19.31
2023-05-16T02:03:34.311Z,19.29
2023-05-16T02:06:00.644Z,19.31
2023-05-16T02:08:27.211Z,19.31
2023-05-16T02:10:57.375Z,19.30
2023-05-16T02:13:23.621Z,19.30
2023-05-16T02:15:49.849Z,19.30
2023-05-16T02:18:16.154Z,19.33
2023-05-16T02:20:42.341Z,19.29
2023-05-16T02:23:08.566Z,19.30
2023-05-16T02:25:34.966Z,19.26
2023-05-16T02:28:02.141Z,19.29
2023-05-16T02:30:29.297Z,19.31
2023-05-16T02:32:55.571Z,19.31
2023-05-16T02:35:28.387Z,19.28
2023-05-16T02:37:55.005Z,19.25
2023-05-16T02:40:21.315Z,19.27
2023-05-16T02:42:47.608Z,19.25
2023-05-16T02:45:13.839Z,19.27
2023-05-16T02:47:42.366Z,19.26
2023-05-16T02:50:08.630Z,19.30
2023-05-16T02:52:34.963Z,19.22
2023-05-16T02:55:20.956Z,19.28
2023-05-16T02:57:50.258Z,19.26
2023-05-16T03:00:20.694Z,19.31
2023-05-16T03:02:49.091Z,19.24
2023-05-16T03:05:18.093Z,19.26
2023-05-16T03:07:44.358Z,19.25
2023-05-16T03:10:10.606Z,19.24
2023-05-16T03:12:39.897Z,19.23
2023-05-16T03:15:06.161Z,19.22
2023-05-16T03:17:36.595Z,19.27
2023-05-16T03:20:04.796Z,19.22
2023-05-16T03:22:31.813Z,19.20
2023-05-16T03:24:58.041Z,19.20
2023-05-16T03:27:28.715Z,19.21
2023-05-16T03:29:54.954Z,19.23
2023-05-16T03:32:21.333Z,19.16
2023-05-16T03:34:47.606Z,19.16
2023-05-16T03:37:13.814Z,19.16
2023-05-16T03:39:42.047Z,19.19
2023-05-16T03:42:11.874Z,19.20
2023-05-16T03:44:38.113Z,19.19
2023-05-16T03:47:04.348Z,19.18
2023-05-16T03:49:30.550Z,19.19
2023-05-16T03:51:57.208Z,19.21
2023-05-16T03:54:23.430Z,19.20
2023-05-16T03:56:52.649Z,19.22
2023-05-16T03:59:18.978Z,19.21
2023-05-16T04:01:45.240Z,19.24
2023-05-16T04:04:12.513Z,19.25
2023-05-16T04:06:38.724Z,19.19
2023-05-16T04:09:05.311Z,19.20
2023-05-16T04:11:31.764Z,19.19
2023-05-16T04:13:58.228Z,19.16
2023-05-16T04:16:24.555Z,19.16
2023-05-16T04:18:52.244Z,19.18
2023-05-16T04:21:18.525Z,19.16
2023-05-16T04:23:44.768Z,19.20
2023-05-16T04:26:11.084Z,19.22
2023-05-16T04:28:37.938Z,19.23
2023-05-16T04:31:04.254Z,19.19
2023-05-16T04:33:30.521Z,19.19
2023-05-16T04:35:56.726Z,19.16
2023-05-16T04:38:25.186Z,19.16
2023-05-16T04:40:51.426Z,19.18
2023-05-16T04:43:21.311Z,19.14
2023-05-16T04:45:47.632Z,19.14
2023-05-16T04:48:17.364Z,19.12
2023-05-16T04:50:46.372Z,19.10
2023-05-16T04:53:12.599Z,19.04
2023-05-16T04:55:42.168Z,19.11
2023-05-16T04:58:08.390Z,19.13
2023-05-16T05:00:35.232Z,19.15
2023-05-16T05:03:01.644Z,19.12
2023-05-16T05:05:28.123Z,19.12
2023-05-16T05:07:54.661Z,19.08
2023-05-16T05:10:20.875Z,19.10
2023-05-16T05:12:49.291Z,19.11
2023-05-16T05:15:15.504Z,19.11
2023-05-16T05:17:41.817Z,19.10
2023-05-16T05:20:09.482Z,19.17
2023-05-16T05:22:36.093Z,19.11
2023-05-16T05:25:03.080Z,19.11
2023-05-16T05:27:30.447Z,19.13
2023-05-16T05:29:59.239Z,19.12
2023-05-16T05:32:27.630Z,19.12
2023-05-16T05:34:54.033Z,19.11
2023-05-16T05:37:20.351Z,19.08
2023-05-16T05:39:46.719Z,19.08
2023-05-16T05:42:13.071Z,19.09
2023-05-16T05:44:42.598Z,19.05
2023-05-16T05:47:09.076Z,19.06
2023-05-16T05:49:35.291Z,19.08
2023-05-16T05:52:01.566Z,19.09
2023-05-16T05:54:29.026Z,19.11
2023-05-16T05:56:55.326Z,19.09
2023-05-16T05:59:21.684Z,19.07
2023-05-16T06:01:47.929Z,19.08
2023-05-16T06:04:14.171Z,19.10
2023-05-16T06:06:43.989Z,19.09
2023-05-16T06:09:10.244Z,19.10
2023-05-16T06:11:36.560Z,19.06
2023-05-16T06:14:02.892Z,19.09
2023-05-16T06:16:29.368Z,19.08
2023-05-16T06:18:55.637Z,19.06
2023-05-16T06:21:22.058Z,19.07
2023-05-16T06:23:49.252Z,19.06
2023-05-16T06:26:15.500Z,19.07
2023-05-16T06:28:41.759Z,19.07
2023-05-16T06:31:12.914Z,19.10
2023-05-16T06:33:39.140Z,19.10
2023-05-16T06:36:10.130Z,19.06
2023-05-16T06:38:37.327Z,19.09
2023-05-16T06:41:03.852Z,19.08
2023-05-16T06:43:30.112Z,19.08
2023-05-16T06:46:00.587Z,19.10
2023-05-16T06:48:31.771Z,19.07
2023-05-16T06:50:58.110Z,19.05
2023-05-16T06:53:24.344Z,19.03
2023-05-16T06:55:50.634Z,19.07
2023-05-16T06:58:16.870Z,19.07
2023-05-16T07:00:45.167Z,19.07
2023-05-16T07:03:13.090Z,19.04
2023-05-16T07:05:39.675Z,19.03
2023-05-16T07:08:10.891Z,19.02
2023-05-16T07:10:37.163Z,19.04
2023-05-16T07:13:06.228Z,19.03
2023-05-16T07:15:32.550Z,19.04
2023-05-16T07:18:01.703Z,19.04
2023-05-16T07:20:30.333Z,19.03
2023-05-16T07:22:56.701Z,19.02
2023-05-16T07:25:25.866Z,19.01
2023-05-16T07:27:57.570Z,19.00
2023-05-16T07:30:27.025Z,19.03
2023-05-16T07:32:53.530Z,18.99
2023-05-16T07:35:19.831Z,19.02
2023-05-16T07:37:46.133Z,19.01
2023-05-16T07:40:12.480Z,18.99
2023-05-16T07:42:38.861Z,19.00
2023-05-16T07:45:05.194Z,18.98
2023-05-16T07:47:31.505Z,19.00
2023-05-16T07:49:57.795Z,19.00
2023-05-16T07:52:24.463Z,19.00
2023-05-16T07:54:50.720Z,18.99
2023-05-16T07:57:17.026Z,18.97
2023-05-16T07:59:43.489Z,18.94
2023-05-16T08:02:11.284Z,18.93
2023-05-16T08:04:37.541Z,18.98
2023-05-16T08:07:03.802Z,18.95
2023-05-16T08:09:30.071Z,18.98
2023-05-16T08:11:56.414Z,18.98
2023-05-16T08:14:22.733Z,18.97
2023-05-16T08:16:48.991Z,19.00
2023-05-16T08:19:15.683Z,18.97
2023-05-16T08:21:41.984Z,18.93
2023-05-16T08:24:08.235Z,18.94
2023-05-16T08:26:34.491Z,18.95
2023-05-16T08:29:02.618Z,18.93
2023-05-16T08:31:31.966Z,18.96
2023-05-16T08:33:58.332Z,18.92
2023-05-16T08:36:25.030Z,18.94
2023-05-16T08:38:55.715Z,18.92
2023-05-16T08:41:21.997Z,18.95
2023-05-16T08:43:48.390Z,18.93
2023-05-16T08:46:14.708Z,18.95
2023-05-16T08:48:43.129Z,18.90
2023-05-16T08:51:09.372Z,18.92
2023-05-16T08:53:35.762Z,18.94
2023-05-16T08:56:05.610Z,18.91
2023-05-16T08:58:31.914Z,18.95
2023-05-16T09:01:01.209Z,19.00
2023-05-16T09:03:27.872Z,18.99
2023-05-16T09:05:55.331Z,19.00
2023-05-16T09:08:21.591Z,18.94
2023-05-16T09:10:49.207Z,18.95
2023-05-16T09:13:16.847Z,18.99
2023-05-16T09:15:43.093Z,18.93
2023-05-16T09:18:11.697Z,18.90
2023-05-16T09:20:38.004Z,18.93
2023-05-16T09:23:04.283Z,18.97
2023-05-16T09:25:31.799Z,18.99
2023-05-16T09:27:58.663Z,18.96
2023-05-16T09:30:24.936Z,18.98
2023-05-16T09:32:53.281Z,18.98
2023-05-16T09:35:35.107Z,18.96
2023-05-16T09:38:12.089Z,18.96
2023-05-16T09:40:38.348Z,18.96
2023-05-16T09:43:05.085Z,18.95
2023-05-16T09:45:31.415Z,18.95
2023-05-16T09:47:57.996Z,18.94
2023-05-16T09:50:24.291Z,18.92
2023-05-16T09:52:50.563Z,18.93
2023-05-16T09:55:19.544Z,18.92
2023-05-16T09:57:45.816Z,18.93
2023-05-16T10:00:13.527Z,18.94
2023-05-16T10:02:40.042Z,18.93
2023-05-16T10:05:06.333Z,18.91
2023-05-16T10:07:35.140Z,18.94
2023-05-16T10:10:01.421Z,18.92
2023-05-16T10:12:27.717Z,18.91
2023-05-16T10:14:53.978Z,18.91
2023-05-16T10:17:20.245Z,18.91
2023-05-16T10:19:49.229Z,18.91
2023-05-16T10:22:15.577Z,18.90
2023-05-16T10:24:41.824Z,18.90
2023-05-16T10:27:08.232Z,18.91
2023-05-16T10:29:46.559Z,18.92
2023-05-16T10:32:19.644Z,18.93
2023-05-16T10:34:45.998Z,18.93
2023-05-16T10:37:12.779Z,18.88
2023-05-16T10:39:39.044Z,18.89
2023-05-16T10:42:05.349Z,18.90
2023-05-16T10:44:33.888Z,18.95
2023-05-16T10:47:00.235Z,18.91
2023-05-16T10:49:26.583Z,18.88
2023-05-16T10:51:53.313Z,18.94
2023-05-16T10:54:19.579Z,18.91
2023-05-16T10:56:48.067Z,18.93
2023-05-16T10:59:14.359Z,18.89
2023-05-16T11:01:41.913Z,18.95
2023-05-16T11:04:09.367Z,18.86
2023-05-16T11:06:35.782Z,18.91
2023-05-16T11:09:02.092Z,18.93
2023-05-16T11:11:28.369Z,18.94
2023-05-16T11:13:54.643Z,18.94
2023-05-16T11:16:20.927Z,18.92
2023-05-16T11:18:48.373Z,18.92
2023-05-16T11:21:18.100Z,18.91
2023-05-16T11:23:44.382Z,18.92
2023-05-16T11:26:11.403Z,18.93
2023-05-16T11:28:40.089Z,18.91
2023-05-16T11:31:07.177Z,18.89
2023-05-16T11:33:35.922Z,18.87
2023-05-16T11:36:14.616Z,18.89
2023-05-16T11:38:42.913Z,18.88
2023-05-16T11:41:09.273Z,18.89
2023-05-16T11:43:38.174Z,18.88
2023-05-16T11:46:05.353Z,18.90
2023-05-16T11:48:37.264Z,18.89
2023-05-16T11:51:03.543Z,18.88
2023-05-16T11:53:29.855Z,18.89
2023-05-16T11:55:59.466Z,18.87
2023-05-16T11:58:26.226Z,18.87
2023-05-16T12:00:52.547Z,18.82
2023-05-16T12:03:18.919Z,18.85
2023-05-16T12:05:45.327Z,18.86
2023-05-16T12:08:13.905Z,18.86
2023-05-16T12:10:40.168Z,18.86
2023-05-16T12:13:08.823Z,18.87
2023-05-16T12:15:40.400Z,18.83
2023-05-16T12:18:06.683Z,18.84
2023-05-16T12:20:33.030Z,18.82
2023-05-16T12:23:01.246Z,18.82
2023-05-16T12:25:27.856Z,18.81
2023-05-16T12:27:54.362Z,18.85
2023-05-16T12:30:20.669Z,18.82
2023-05-16T12:32:47.196Z,18.81
2023-05-16T12:35:13.751Z,18.84
2023-05-16T12:37:42.876Z,18.82
2023-05-16T12:40:09.600Z,18.79
2023-05-16T12:42:35.861Z,18.82
2023-05-16T12:45:05.651Z,18.84
2023-05-16T12:47:33.482Z,18.82
2023-05-16T12:49:59.737Z,18.81
2023-05-16T12:52:26.091Z,18.84
2023-05-16T12:54:52.363Z,18.81
2023-05-16T12:57:22.064Z,18.81
2023-05-16T12:59:53.349Z,18.81
2023-05-16T13:02:19.658Z,18.84
2023-05-16T13:04:45.929Z,18.82
2023-05-16T13:07:12.191Z,18.82
2023-05-16T13:09:38.454Z,18.81
2023-05-16T13:12:04.775Z,18.83
2023-05-16T13:14:31.034Z,18.80
2023-05-16T13:16:57.349Z,18.80
2023-05-16T13:19:23.702Z,18.81
2023-05-16T13:21:51.213Z,18.82
2023-05-16T13:24:17.473Z,18.81
2023-05-16T13:26:45.549Z,18.82
2023-05-16T13:29:15.417Z,18.81
2023-05-16T13:31:41.805Z,18.78
2023-05-16T13:34:08.068Z,18.81
2023-05-16T13:36:49.268Z,18.81
2023-05-16T13:39:20.926Z,18.78
2023-05-16T13:41:48.770Z,18.80
2023-05-16T13:44:15.689Z,18.81
2023-05-16T13:46:41.945Z,18.82
2023-05-16T13:49:09.685Z,18.79
2023-05-16T13:51:40.139Z,18.80
2023-05-16T13:54:06.388Z,18.80
2023-05-16T13:56:32.619Z,18.79
2023-05-16T13:59:05.815Z,18.79
2023-05-16T14:01:33.062Z,18.80
2023-05-16T14:04:01.480Z,18.79
2023-05-16T14:06:27.864Z,18.79
2023-05-16T14:08:54.807Z,18.78
2023-05-16T14:11:28.459Z,18.79
2023-05-16T14:13:55.601Z,18.77
2023-05-16T14:16:21.887Z,18.82
2023-05-16T14:18:48.191Z,18.79
2023-05-16T14:21:14.546Z,18.79
2023-05-16T14:23:40.816Z,18.79
2023-05-16T14:26:07.830Z,18.79
2023-05-16T14:28:34.260Z,18.76
2023-05-16T14:31:00.567Z,18.77
2023-05-16T14:33:26.811Z,18.76
2023-05-16T14:35:57.131Z,18.78
2023-05-16T14:38:23.534Z,18.79
2023-05-16T14:40:49.802Z,18.78
2023-05-16T14:43:16.036Z,18.79
2023-05-16T14:45:47.630Z,18.77
2023-05-16T14:48:13.921Z,18.81
2023-05-16T14:50:42.177Z,18.77
2023-05-16T14:53:11.398Z,18.79
2023-05-16T14:55:41.315Z,18.77
2023-05-16T14:58:09.367Z,18.79
2023-05-16T15:00:37.147Z,18.79
2023-05-16T15:03:07.161Z,18.78
2023-05-16T15:05:33.460Z,18.81
2023-05-16T15:08:03.886Z,18.81
2023-05-16T15:10:30.662Z,18.83
2023-05-16T15:12:58.710Z,18.80
2023-05-16T15:15:24.968Z,18.83
2023-05-16T15:17:51.607Z,18.84
2023-05-16T15:20:20.507Z,18.83
2023-05-16T15:22:52.315Z,18.83
2023-05-16T15:25:19.376Z,18.85
2023-05-16T15:27:49.643Z,18.87
2023-05-16T15:30:17.561Z,18.83
2023-05-16T15:32:43.958Z,18.82
2023-05-16T15:35:10.284Z,18.83
2023-05-16T15:37:37.144Z,18.83
2023-05-16T15:40:03.423Z,18.83
2023-05-16T15:42:29.867Z,18.83
2023-05-16T15:44:56.133Z,18.84
2023-05-16T15:47:22.381Z,18.84
2023-05-16T15:49:48.671Z,18.80
2023-05-16T15:52:15.609Z,18.82
2023-05-16T15:54:41.899Z,18.81
2023-05-16T15:57:09.674Z,18.82
2023-05-16T15:59:36.021Z,18.81
2023-05-16T16:02:03.437Z,18.83
2023-05-16T16:04:29.742Z,18.84
2023-05-16T16:06:56.044Z,18.80
2023-05-16T16:09:22.317Z,18.79
2023-05-16T16:11:48.608Z,18.81
2023-05-16T16:14:15.005Z,18.83
2023-05-16T16:16:44.608Z,18.81
2023-05-16T16:19:11.047Z,18.79
2023-05-16T16:21:39.391Z,18.81
2023-05-16T16:24:05.682Z,18.78
2023-05-16T16:26:36.349Z,18.82
2023-05-16T16:29:02.591Z,18.79
2023-05-16T16:31:32.457Z,18.79
2023-05-16T16:34:00.940Z,18.78
2023-05-16T16:36:27.289Z,18.82
2023-05-16T16:38:53.930Z,18.81
2023-05-16T16:41:20.961Z,18.77
2023-05-16T16:43:47.221Z,18.80
2023-05-16T16:46:16.032Z,18.79
2023-05-16T16:48:42.369Z,18.77
2023-05-16T16:51:10.661Z,18.79
2023-05-16T16:53:37.138Z,18.77
2023-05-16T16:56:03.385Z,18.81
2023-05-16T16:58:31.942Z,18.79
2023-05-16T17:01:04.551Z,18.78
2023-05-16T17:03:31.009Z,18.80
2023-05-16T17:05:57.377Z,18.78
2023-05-16T17:08:28.829Z,18.81
2023-05-16T17:11:00.415Z,18.79
2023-05-16T17:13:29.600Z,18.81
2023-05-16T17:16:00.537Z,18.82
2023-05-16T17:18:27.014Z,18.78
2023-05-16T17:20:58.980Z,18.79
2023-05-16T17:23:26.063Z,18.80
2023-05-16T17:25:52.332Z,18.78
2023-05-16T17:28:18.584Z,18.78
2023-05-16T17:30:44.848Z,18.78
2023-05-16T17:33:11.209Z,18.76
2023-05-16T17:35:38.342Z,18.74
2023-05-16T17:38:04.627Z,18.75
2023-05-16T17:40:30.914Z,18.77
2023-05-16T17:42:57.802Z,18.79
2023-05-16T17:45:24.202Z,18.75
2023-05-16T17:47:51.373Z,18.75
2023-05-16T17:50:19.772Z,18.76
2023-05-16T17:52:49.709Z,18.76
2023-05-16T17:55:16.021Z,18.75
2023-05-16T17:57:42.625Z,18.77
2023-05-16T18:00:09.455Z,18.76
2023-05-16T18:02:38.631Z,18.77
2023-05-16T18:05:07.208Z,18.75
2023-05-16T18:07:33.635Z,18.76
2023-05-16T18:10:00.203Z,18.75
2023-05-16T18:12:26.451Z,18.78
2023-05-16T18:14:52.745Z,18.75
2023-05-16T18:17:22.256Z,18.74
2023-05-16T18:19:52.070Z,18.75
2023-05-16T18:22:20.415Z,18.77
2023-05-16T18:24:46.891Z,18.77
2023-05-16T18:27:15.205Z,18.77
2023-05-16T18:29:41.494Z,18.80
2023-05-16T18:32:07.821Z,18.75
2023-05-16T18:34:34.084Z,18.77
2023-05-16T18:37:00.397Z,18.78
2023-05-16T18:39:27.372Z,18.76
2023-05-16T18:41:54.677Z,18.76
2023-05-16T18:44:20.961Z,18.75
2023-05-16T18:46:48.666Z,18.76
2023-05-16T18:49:14.998Z,18.77
2023-05-16T18:51:41.354Z,18.77
2023-05-16T18:54:07.603Z,18.75
2023-05-16T18:56:37.427Z,18.77
2023-05-16T18:59:03.742Z,18.77
2023-05-16T19:01:30.085Z,18.76
2023-05-16T19:03:56.634Z,18.76
2023-05-16T19:06:28.053Z,18.74
2023-05-16T19:08:56.106Z,18.76
2023-05-16T19:11:22.436Z,18.75
2023-05-16T19:13:48.715Z,18.74
2023-05-16T19:16:19.808Z,18.74
2023-05-16T19:18:46.190Z,18.75
2023-05-16T19:21:12.655Z,18.73
2023-05-16T19:23:38.994Z,18.73
2023-05-16T19:26:05.329Z,18.73
2023-05-16T19:28:31.699Z,18.72
2023-05-16T19:31:02.718Z,18.74
2023-05-16T19:33:29.015Z,18.72
2023-05-16T19:35:55.268Z,18.73
2023-05-16T19:38:24.000Z,18.71
2023-05-16T19:40:50.273Z,18.73
2023-05-16T19:43:16.562Z,18.72
2023-05-16T19:45:42.845Z,18.72
2023-05-16T19:48:11.356Z,18.72
2023-05-16T19:50:37.689Z,18.71
2023-05-16T19:53:03.951Z,18.71
2023-05-16T19:55:33.108Z,18.70
2023-05-16T19:57:59.594Z,18.71
2023-05-16T20:00:27.394Z,18.71
2023-05-16T20:02:56.296Z,18.72
2023-05-16T20:05:27.020Z,18.71
2023-05-16T20:07:54.993Z,18.69
2023-05-16T20:10:22.037Z,18.69
2023-05-16T20:12:49.034Z,18.71
2023-05-16T20:15:15.316Z,18.70
2023-05-16T20:17:41.591Z,18.69
2023-05-16T20:20:07.891Z,18.70
2023-05-16T20:22:34.159Z,18.72
2023-05-16T20:25:00.456Z,18.71
2023-05-16T20:27:27.412Z,18.72
2023-05-16T20:29:53.966Z,18.70
2023-05-16T20:32:20.265Z,18.70
2023-05-16T20:34:49.280Z,18.69
2023-05-16T20:37:15.518Z,18.69
2023-05-16T20:39:41.870Z,18.68
2023-05-16T20:42:08.396Z,18.69
2023-05-16T20:44:36.476Z,18.70
2023-05-16T20:47:02.772Z,18.70
2023-05-16T20:49:29.151Z,18.70
2023-05-16T20:51:55.411Z,18.70
2023-05-16T20:54:24.344Z,18.71
2023-05-16T20:56:50.645Z,18.70
2023-05-16T20:59:22.003Z,18.69
2023-05-16T21:01:48.761Z,18.68
2023-05-16T21:04:15.074Z,18.70
2023-05-16T21:06:41.609Z,18.67
2023-05-16T21:09:07.995Z,18.70
2023-05-16T21:11:37.736Z,18.70
2023-05-16T21:14:04.006Z,18.71
2023-05-16T21:16:30.482Z,18.71
2023-05-16T21:19:02.110Z,18.70
2023-05-16T21:21:28.483Z,18.65
2023-05-16T21:23:54.756Z,18.69
2023-05-16T21:26:21.105Z,18.67
2023-05-16T21:31:17.711Z,18.62
2023-05-16T21:33:44.004Z,18.67
2023-05-16T21:36:10.487Z,18.67
2023-05-16T21:38:36.733Z,18.69
2023-05-16T21:41:03.063Z,18.62
2023-05-16T21:43:29.310Z,18.61
2023-05-16T21:45:58.938Z,18.64
2023-05-16T21:48:26.173Z,18.64
2023-05-16T21:50:55.138Z,18.65
2023-05-16T21:53:24.999Z,18.65
2023-05-16T21:55:51.291Z,18.59
2023-05-16T21:58:17.567Z,18.64
2023-05-16T22:00:46.114Z,18.63
2023-05-16T22:03:16.514Z,18.61
2023-05-16T22:05:46.630Z,18.61
2023-05-16T22:08:12.924Z,18.60
2023-05-16T22:10:39.185Z,18.63
2023-05-16T22:13:05.494Z,18.58
2023-05-16T22:15:31.949Z,18.56
2023-05-16T22:17:58.300Z,18.55
2023-05-16T22:20:24.675Z,18.58
2023-05-16T22:22:50.972Z,18.57
2023-05-16T22:25:17.432Z,18.58
2023-05-16T22:27:43.683Z,18.58
2023-05-16T22:30:09.927Z,18.58
2023-05-16T22:32:38.828Z,18.54
2023-05-16T22:35:05.197Z,18.62
2023-05-16T22:37:31.580Z,18.57
2023-05-16T22:40:06.409Z,18.54
2023-05-16T22:42:35.798Z,18.55
2023-05-16T22:45:02.048Z,18.55
2023-05-16T22:47:28.361Z,18.56
2023-05-16T22:50:00.495Z,18.50
2023-05-16T22:52:26.874Z,18.51
2023-05-16T22:54:53.114Z,18.51
2023-05-16T22:57:19.364Z,18.56
2023-05-16T22:59:47.625Z,18.57
2023-05-16T23:02:13.957Z,18.57
2023-05-16T23:04:41.334Z,18.52
2023-05-16T23:07:07.645Z,18.42
2023-05-16T23:09:33.903Z,18.50
2023-05-16T23:12:00.162Z,18.48
2023-05-16T23:14:26.430Z,18.49
2023-05-16T23:16:57.747Z,18.49
2023-05-16T23:19:24.132Z,18.38
2023-05-16T23:21:54.018Z,18.48
2023-05-16T23:24:21.792Z,18.49
2023-05-16T23:26:48.134Z,18.47
2023-05-16T23:29:18.990Z,18.48
2023-05-16T23:31:45.226Z,18.48
2023-05-16T23:34:12.757Z,18.43
2023-05-16T23:36:39.100Z,18.48
2023-05-16T23:39:05.481Z,18.41
2023-05-16T23:41:31.752Z,18.44
2023-05-16T23:43:58.048Z,18.44
2023-05-16T23:46:24.387Z,18.47
2023-05-16T23:48:55.330Z,18.40
2023-05-16T23:51:21.686Z,18.43
2023-05-16T23:53:49.963Z,18.46
2023-05-16T23:56:16.232Z,18.43
2023-05-16T23:58:42.813Z,18.41
